Terminal Aerodrome Forecast
Issued by NWS Upton, NY

Current Version | Previous Version | Text Only | Print | Product List | Glossary On
Versions: 1 2 3 4 5 6 7 8 9 10 11 12 13 14 15 16 17 18 19 20 21 22 23 24 25 26 27 28 29 30 31 32 33 34
000 FTUS41 KOKX 181251 AAA TAFBDR TAF AMD KBDR 181251Z 1813/1912 03008KT 6SM BR OVC008 FM181600 01009KT P6SM BKN009 OVC012 FM182100 36009KT P6SM OVC012 FM190100 36006KT P6SM BKN012 OVC020 FM190800 VRB04KT P6SM SCT025 BKN040=

USA.gov is the U.S. government's official web portal to all federal, state and local government web resources and services.